Time;durP1;ratioP1;P1;durP2;ratioP2;P2;SDS_P1;SDS_P2;PMS_P1;PMS_P2;Temp;Humidity;BMP_temperature;BMP_pressure;BME280_temperature;BME280_humidity;BME280_pressure;Samples;Min_cycle;Max_cycle;Signal;HPM_P1;HPM_P2
2023/08/09 00:02:24;;;;;;;928.70;843.13;;;15.20;99.90;;;;;;4995210;28;20541;-68
2023/08/09 00:04:51;;;;;;;932.00;848.80;;;15.20;99.90;;;;;;4994856;28;20459;-67
2023/08/09 00:07:18;;;;;;;936.40;851.37;;;15.20;99.90;;;;;;4995042;28;20450;-67
2023/08/09 00:09:45;;;;;;;926.67;840.17;;;15.10;99.90;;;;;;4998899;28;20540;-67
2023/08/09 00:12:12;;;;;;;918.23;833.07;;;15.20;99.90;;;;;;5014626;28;20449;-68
2023/08/09 00:14:40;;;;;;;929.60;842.80;;;15.20;99.90;;;;;;5014220;28;20520;-68
2023/08/09 00:17:07;;;;;;;926.33;839.40;;;15.20;99.90;;;;;;5014401;28;20883;-67
2023/08/09 00:19:34;;;;;;;930.43;843.07;;;15.20;99.90;;;;;;5011852;28;20453;-67
2023/08/09 00:22:01;;;;;;;919.17;833.83;;;15.20;99.90;;;;;;5014032;28;20449;-67
2023/08/09 00:24:28;;;;;;;922.43;835.97;;;15.20;99.90;;;;;;5014405;28;20445;-67
2023/08/09 00:26:55;;;;;;;938.17;852.50;;;15.20;99.90;;;;;;5014336;28;20453;-66
2023/08/09 00:29:22;;;;;;;939.83;853.93;;;15.10;99.90;;;;;;5013955;28;20507;-67
2023/08/09 00:31:50;;;;;;;954.57;868.80;;;15.10;99.90;;;;;;5014394;28;20996;-67
2023/08/09 00:34:17;;;;;;;947.57;859.10;;;15.00;99.90;;;;;;5013907;28;20481;-68
2023/08/09 00:36:44;;;;;;;954.30;865.70;;;15.00;99.90;;;;;;5014185;28;20449;-67
2023/08/09 00:39:11;;;;;;;951.83;864.63;;;15.00;99.90;;;;;;5013488;28;20454;-67
2023/08/09 00:41:38;;;;;;;960.33;870.17;;;15.00;99.90;;;;;;5014186;28;20449;-68
2023/08/09 00:44:05;;;;;;;957.43;866.47;;;15.00;99.90;;;;;;5014111;28;20449;-67
2023/08/09 00:46:32;;;;;;;962.10;870.07;;;15.00;99.90;;;;;;5014119;28;20819;-68
2023/08/09 00:49:00;;;;;;;970.23;878.90;;;15.10;99.90;;;;;;5013613;28;20450;-68
2023/08/09 00:51:27;;;;;;;993.17;902.07;;;15.10;99.90;;;;;;5013800;28;20934;-68
2023/08/09 00:53:54;;;;;;;989.83;900.13;;;15.20;99.90;;;;;;5013977;28;20555;-67
2023/08/09 00:56:21;;;;;;;982.10;892.20;;;15.20;99.90;;;;;;5014010;28;20499;-68
2023/08/09 00:58:48;;;;;;;988.20;897.37;;;15.20;99.90;;;;;;5013709;28;20532;-68
2023/08/09 01:01:15;;;;;;;1008.63;918.23;;;15.20;99.90;;;;;;5013637;28;20548;-68
2023/08/09 01:03:42;;;;;;;1047.93;956.73;;;15.20;99.90;;;;;;5013926;28;20460;-68
2023/08/09 01:06:18;;;;;;;1023.10;931.80;;;15.20;99.90;;;;;;5013881;28;20455;-68
2023/08/09 01:08:51;;;;;;;1016.83;927.03;;;15.20;99.90;;;;;;5013429;28;20440;-68
2023/08/09 01:11:27;;;;;;;1041.00;948.47;;;15.30;99.90;;;;;;5013983;28;20444;-67
2023/08/09 01:13:55;;;;;;;1071.03;975.53;;;15.20;99.90;;;;;;5014128;28;20852;-67
2023/08/09 01:16:24;;;;;;;1138.60;999.90;;;15.30;99.90;;;;;;5013507;28;20449;-67
2023/08/09 01:18:52;;;;;;;1145.20;999.90;;;15.20;99.90;;;;;;5013032;28;20968;-67
2023/08/09 01:21:24;;;;;;;1159.17;999.90;;;15.20;99.90;;;;;;5013415;28;20930;-68
2023/08/09 01:23:53;;;;;;;973.33;903.07;;;15.10;99.90;;;;;;5013470;28;20438;-68
2023/08/09 01:26:20;;;;;;;871.57;816.73;;;14.50;99.90;;;;;;5013731;28;20461;-68
2023/08/09 01:28:47;;;;;;;861.13;807.97;;;14.20;99.90;;;;;;5012941;28;20457;-68
2023/08/09 01:31:14;;;;;;;861.67;806.03;;;14.10;99.90;;;;;;5014621;28;20511;-69
2023/08/09 01:33:41;;;;;;;864.47;807.40;;;14.10;99.90;;;;;;5017562;28;20477;-69
2023/08/09 01:36:16;;;;;;;885.90;821.93;;;14.00;99.90;;;;;;5017291;28;20487;-68
2023/08/09 01:38:48;;;;;;;895.33;829.97;;;14.00;99.90;;;;;;5017169;28;20897;-69
2023/08/09 01:41:16;;;;;;;900.83;832.33;;;13.90;99.90;;;;;;5017198;28;20440;-67
2023/08/09 01:43:45;;;;;;;892.63;823.43;;;14.10;99.90;;;;;;5017420;28;20476;-67
2023/08/09 01:46:12;;;;;;;888.03;819.57;;;14.20;99.90;;;;;;5017357;28;20457;-67
2023/08/09 01:48:38;;;;;;;907.03;832.77;;;14.10;99.90;;;;;;5017124;28;20536;-67
2023/08/09 01:51:05;;;;;;;930.30;849.00;;;13.90;99.90;;;;;;5016925;28;20456;-66
2023/08/09 01:53:32;;;;;;;940.63;857.23;;;13.90;99.90;;;;;;5017129;28;20482;-66
2023/08/09 01:55:59;;;;;;;968.30;880.57;;;13.80;99.90;;;;;;5017425;28;20437;-67
2023/08/09 01:58:27;;;;;;;1000.43;906.83;;;14.00;99.90;;;;;;5016657;28;20782;-67
2023/08/09 02:00:54;;;;;;;997.23;905.67;;;14.00;99.90;;;;;;5016777;28;20453;-66
2023/08/09 02:03:21;;;;;;;1015.03;922.03;;;13.70;99.90;;;;;;5017013;28;20837;-66
2023/08/09 02:05:48;;;;;;;1004.10;912.90;;;13.70;99.90;;;;;;5016998;28;20812;-66
2023/08/09 02:08:15;;;;;;;980.30;893.20;;;13.70;99.90;;;;;;5016191;28;20449;-67
2023/08/09 02:10:41;;;;;;;997.60;907.93;;;13.70;99.90;;;;;;5016517;28;20456;-66
2023/08/09 02:13:08;;;;;;;1006.37;917.27;;;13.70;99.90;;;;;;5016455;28;20449;-66
2023/08/09 02:15:36;;;;;;;1009.30;919.30;;;13.70;99.90;;;;;;5016794;28;20453;-66
2023/08/09 02:18:05;;;;;;;1002.47;913.57;;;13.80;99.90;;;;;;5016168;28;20560;-66
2023/08/09 02:20:32;;;;;;;1041.60;947.43;;;13.60;99.90;;;;;;5016872;28;20942;-66
2023/08/09 02:22:58;;;;;;;1004.43;914.17;;;13.70;99.90;;;;;;5016306;28;20454;-66
2023/08/09 02:25:26;;;;;;;1024.27;931.10;;;13.80;99.90;;;;;;5016298;28;20445;-66
2023/08/09 02:27:53;;;;;;;1017.83;924.23;;;13.90;99.90;;;;;;5016403;28;20460;-66
2023/08/09 02:30:20;;;;;;;1064.33;968.97;;;13.80;99.90;;;;;;5016635;28;20818;-66
2023/08/09 02:32:50;;;;;;;992.70;902.43;;;13.90;99.90;;;;;;5016227;28;20464;-67
2023/08/09 02:35:17;;;;;;;977.13;883.87;;;13.70;99.90;;;;;;5016364;28;20477;-67
2023/08/09 02:37:44;;;;;;;933.87;845.67;;;13.80;99.90;;;;;;5016144;28;20500;-67
2023/08/09 02:40:12;;;;;;;925.17;837.87;;;13.70;99.90;;;;;;5016043;28;20964;-67
2023/08/09 02:42:39;;;;;;;928.00;841.20;;;13.70;99.90;;;;;;5015039;28;20960;-67
2023/08/09 02:45:07;;;;;;;928.07;842.17;;;13.70;99.90;;;;;;5016249;28;20446;-67
2023/08/09 02:47:34;;;;;;;926.63;841.60;;;13.90;99.90;;;;;;5015729;28;20456;-67
2023/08/09 02:50:02;;;;;;;922.50;838.20;;;14.00;99.90;;;;;;5015975;28;20484;-67
2023/08/09 02:52:29;;;;;;;932.20;848.50;;;14.00;99.90;;;;;;5016120;28;20453;-67
2023/08/09 02:54:56;;;;;;;926.23;843.40;;;13.70;99.90;;;;;;5015712;28;20481;-67
2023/08/09 02:57:23;;;;;;;927.07;844.87;;;13.70;99.90;;;;;;5015852;28;20456;-67
2023/08/09 02:59:49;;;;;;;921.80;840.27;;;13.90;99.90;;;;;;5015559;28;20492;-67
2023/08/09 03:02:16;;;;;;;923.20;841.80;;;13.70;99.90;;;;;;5015630;28;20942;-67
2023/08/09 03:04:43;;;;;;;926.17;844.67;;;14.00;99.90;;;;;;5015879;28;20452;-67
2023/08/09 03:07:11;;;;;;;924.97;843.87;;;14.00;99.90;;;;;;5015832;28;20953;-67
2023/08/09 03:09:40;;;;;;;917.23;837.13;;;13.70;99.90;;;;;;5015276;28;20934;-67
2023/08/09 03:12:08;;;;;;;921.10;840.13;;;13.80;99.90;;;;;;5015770;28;20491;-68
2023/08/09 03:14:35;;;;;;;915.97;835.97;;;13.80;99.90;;;;;;5015341;28;20477;-68
2023/08/09 03:17:01;;;;;;;917.33;838.43;;;14.00;99.90;;;;;;5015566;28;20817;-67
2023/08/09 03:19:28;;;;;;;924.57;845.47;;;14.00;99.90;;;;;;5015117;28;20453;-68
2023/08/09 03:21:55;;;;;;;916.33;837.63;;;13.80;99.90;;;;;;5015522;28;20454;-68
2023/08/09 03:24:23;;;;;;;911.70;834.03;;;13.70;99.90;;;;;;5015518;28;20808;-68
2023/08/09 03:26:50;;;;;;;916.83;839.47;;;13.70;99.90;;;;;;5015157;28;20457;-67
2023/08/09 03:29:17;;;;;;;918.67;842.07;;;13.90;99.90;;;;;;5001312;28;20446;-67
2023/08/09 03:31:44;;;;;;;918.20;842.00;;;13.80;99.90;;;;;;4995817;28;20497;-67
2023/08/09 03:34:11;;;;;;;908.57;833.20;;;13.90;99.90;;;;;;4995753;28;20474;-67
2023/08/09 03:36:38;;;;;;;904.93;829.73;;;13.90;99.90;;;;;;4995729;28;20450;-67
2023/08/09 03:39:06;;;;;;;909.70;834.10;;;13.70;99.90;;;;;;4995419;28;20454;-67
2023/08/09 03:41:34;;;;;;;911.23;836.03;;;13.80;99.90;;;;;;4995305;28;20462;-67
2023/08/09 03:44:01;;;;;;;909.67;834.87;;;13.80;99.90;;;;;;4995301;28;21002;-66
2023/08/09 03:46:28;;;;;;;907.17;832.47;;;13.60;99.90;;;;;;4995547;28;20454;-67
2023/08/09 03:48:55;;;;;;;905.63;831.33;;;13.80;99.90;;;;;;4995130;28;20958;-66
2023/08/09 03:51:22;;;;;;;904.60;830.20;;;13.90;99.90;;;;;;4995171;28;21012;-66
2023/08/09 03:53:48;;;;;;;904.47;831.30;;;13.90;99.90;;;;;;4995111;28;20528;-66
2023/08/09 03:56:15;;;;;;;904.20;830.53;;;13.70;99.90;;;;;;4995346;28;20493;-66
2023/08/09 03:58:44;;;;;;;899.60;826.40;;;13.80;99.90;;;;;;4994731;28;20872;-66
2023/08/09 04:01:11;;;;;;;912.83;839.03;;;13.60;99.90;;;;;;4995291;28;20453;-66
2023/08/09 04:03:39;;;;;;;906.93;833.57;;;13.70;99.90;;;;;;4995199;28;20549;-66
2023/08/09 04:06:06;;;;;;;902.57;829.87;;;13.80;99.90;;;;;;4994873;28;20443;-66
2023/08/09 04:08:33;;;;;;;899.37;826.57;;;13.80;99.90;;;;;;4994465;28;20450;-66
2023/08/09 04:11:00;;;;;;;902.63;830.00;;;13.70;99.90;;;;;;4995104;28;20533;-66
2023/08/09 04:13:27;;;;;;;902.80;830.50;;;13.80;99.90;;;;;;4994985;28;20446;-66
2023/08/09 04:15:55;;;;;;;900.30;827.80;;;13.80;99.90;;;;;;4994904;28;20478;-66
2023/08/09 04:18:22;;;;;;;895.57;823.17;;;13.90;99.90;;;;;;4994221;28;20466;-66
2023/08/09 04:20:50;;;;;;;909.10;836.80;;;13.70;99.90;;;;;;4994648;28;20494;-66
2023/08/09 04:23:18;;;;;;;912.07;839.87;;;13.80;99.90;;;;;;4994930;28;20929;-66
2023/08/09 04:25:46;;;;;;;909.27;837.27;;;13.90;99.90;;;;;;4994533;28;20944;-66
2023/08/09 04:28:13;;;;;;;902.73;831.03;;;13.70;99.90;;;;;;4995398;28;20453;-66
2023/08/09 04:30:40;;;;;;;900.80;829.20;;;14.00;99.90;;;;;;4994748;28;20545;-66
2023/08/09 04:33:08;;;;;;;902.47;830.77;;;13.70;99.90;;;;;;4994408;28;20490;-66
2023/08/09 04:35:35;;;;;;;904.70;833.10;;;13.70;99.90;;;;;;4994205;28;20474;-66
2023/08/09 04:38:03;;;;;;;907.33;835.23;;;13.70;99.90;;;;;;4994652;28;20537;-65
2023/08/09 04:40:30;;;;;;;912.53;841.13;;;13.70;99.90;;;;;;4995009;28;20461;-69
2023/08/09 04:42:58;;;;;;;914.07;843.67;;;13.90;99.90;;;;;;4994632;28;20450;-66
2023/08/09 04:45:25;;;;;;;914.93;843.03;;;13.70;99.90;;;;;;4994282;28;20457;-65
2023/08/09 04:47:52;;;;;;;916.00;844.20;;;13.90;99.90;;;;;;4993990;28;20455;-70
2023/08/09 04:50:21;;;;;;;919.67;847.77;;;13.80;99.90;;;;;;4993919;28;20454;-67
2023/08/09 04:52:48;;;;;;;917.23;845.23;;;13.70;99.90;;;;;;4994188;28;20935;-68
2023/08/09 04:55:15;;;;;;;913.67;841.97;;;13.50;99.90;;;;;;4994430;28;20478;-68
2023/08/09 04:57:43;;;;;;;918.90;846.97;;;13.70;99.90;;;;;;4997267;28;20485;-68
2023/08/09 05:00:10;;;;;;;908.00;836.60;;;13.50;99.90;;;;;;5013940;28;20460;-66
2023/08/09 05:02:38;;;;;;;913.03;842.00;;;13.40;99.90;;;;;;5013942;28;20449;-65
2023/08/09 05:05:06;;;;;;;915.73;845.00;;;13.50;99.90;;;;;;5013775;28;20445;-67
2023/08/09 05:07:34;;;;;;;911.20;840.40;;;13.60;99.90;;;;;;5019731;28;20485;-67
2023/08/09 05:10:01;;;;;;;910.40;839.80;;;13.40;99.90;;;;;;5020687;28;20530;-67
2023/08/09 05:12:28;;;;;;;913.37;842.97;;;13.50;99.90;;;;;;5020332;28;20449;-67
2023/08/09 05:14:57;;;;;;;915.80;845.40;;;13.60;99.90;;;;;;5020049;28;20483;-67
2023/08/09 05:17:24;;;;;;;913.97;844.07;;;13.80;99.90;;;;;;5020065;28;20487;-67
2023/08/09 05:19:51;;;;;;;911.80;841.70;;;13.80;99.90;;;;;;5005010;28;20446;-68
2023/08/09 05:22:19;;;;;;;922.27;851.37;;;13.70;99.90;;;;;;5001165;28;20458;-67
2023/08/09 05:24:47;;;;;;;912.73;841.73;;;13.90;99.90;;;;;;5000615;28;20529;-67
2023/08/09 05:27:14;;;;;;;918.90;847.60;;;13.70;99.90;;;;;;5000638;28;20458;-68
2023/08/09 05:29:41;;;;;;;928.00;856.70;;;13.90;99.90;;;;;;5001195;28;20536;-67
2023/08/09 05:32:07;;;;;;;922.17;850.07;;;13.80;99.90;;;;;;5000634;28;20454;-68
2023/08/09 05:34:34;;;;;;;918.63;846.53;;;14.10;99.90;;;;;;5000266;28;21008;-65
2023/08/09 05:37:01;;;;;;;922.90;850.50;;;14.20;99.90;;;;;;5000301;28;20461;-65
2023/08/09 05:39:28;;;;;;;916.83;843.73;;;14.10;99.90;;;;;;5001052;28;20454;-68
2023/08/09 05:41:56;;;;;;;918.30;845.00;;;14.50;99.90;;;;;;5000790;28;20454;-68
2023/08/09 05:44:23;;;;;;;924.43;851.17;;;14.40;99.90;;;;;;5000482;28;20454;-68
2023/08/09 05:46:50;;;;;;;920.40;847.23;;;14.50;99.90;;;;;;5000196;28;20960;-68
2023/08/09 05:49:17;;;;;;;925.80;852.50;;;14.90;99.90;;;;;;5017203;28;20457;-66
2023/08/09 05:51:44;;;;;;;933.67;859.37;;;14.90;99.90;;;;;;5025452;28;20454;-68
2023/08/09 05:54:11;;;;;;;922.47;848.80;;;14.80;99.90;;;;;;5021693;28;20540;-68
2023/08/09 05:56:38;;;;;;;936.07;861.80;;;15.00;99.90;;;;;;5020029;28;20445;-68
2023/08/09 05:59:06;;;;;;;932.73;858.87;;;15.00;99.90;;;;;;5016998;28;20821;-69
2023/08/09 06:01:33;;;;;;;930.93;856.50;;;15.00;99.90;;;;;;5011922;28;20988;-68
2023/08/09 06:04:00;;;;;;;929.93;855.53;;;15.00;99.90;;;;;;5006347;28;20446;-69
2023/08/09 06:06:27;;;;;;;941.97;867.77;;;15.00;99.90;;;;;;5006620;28;20537;-68
2023/08/09 06:08:54;;;;;;;930.93;857.93;;;15.20;99.90;;;;;;5007128;28;20504;-69
2023/08/09 06:11:21;;;;;;;937.03;864.03;;;15.20;99.90;;;;;;5016086;28;20451;-69
2023/08/09 06:13:47;;;;;;;947.53;874.20;;;15.20;99.90;;;;;;4999331;28;20451;-69
2023/08/09 06:16:16;;;;;;;952.63;878.50;;;15.10;99.90;;;;;;5005422;28;20481;-68
2023/08/09 06:18:42;;;;;;;950.33;876.67;;;15.50;99.90;;;;;;5005360;28;20466;-69
2023/08/09 06:21:09;;;;;;;953.50;879.50;;;15.50;99.90;;;;;;5008538;28;20454;-69
2023/08/09 06:23:36;;;;;;;956.87;882.67;;;15.40;99.90;;;;;;4997952;28;20459;-69
2023/08/09 06:26:03;;;;;;;964.27;890.47;;;15.60;99.90;;;;;;5009554;28;20454;-69
2023/08/09 06:28:30;;;;;;;969.87;895.70;;;15.70;99.90;;;;;;4999815;28;20466;-69
2023/08/09 06:30:57;;;;;;;969.50;894.40;;;16.10;99.90;;;;;;5007176;28;20449;-69
2023/08/09 06:33:25;;;;;;;980.13;903.53;;;16.40;99.90;;;;;;4998732;28;20837;-69
2023/08/09 06:35:52;;;;;;;989.77;912.40;;;16.50;99.90;;;;;;5009112;28;20482;-69
2023/08/09 06:38:19;;;;;;;989.80;912.00;;;16.40;99.90;;;;;;5003108;28;20461;-69
2023/08/09 06:40:46;;;;;;;988.37;909.97;;;16.30;99.90;;;;;;5001886;28;20454;-69
2023/08/09 06:43:13;;;;;;;1010.67;931.27;;;16.20;99.90;;;;;;5001967;28;20468;-69
2023/08/09 06:45:40;;;;;;;1017.13;937.87;;;16.60;99.90;;;;;;5008818;28;20450;-69
2023/08/09 06:48:08;;;;;;;1015.87;937.37;;;16.70;99.90;;;;;;4996562;28;20449;-69
2023/08/09 06:50:37;;;;;;;1006.70;928.10;;;16.60;99.90;;;;;;5012620;28;20922;-69
2023/08/09 06:53:04;;;;;;;1016.77;938.23;;;16.60;99.90;;;;;;5012137;28;20802;-67
2023/08/09 06:55:31;;;;;;;1003.00;925.30;;;17.00;99.90;;;;;;5002419;28;20487;-69
2023/08/09 06:57:58;;;;;;;1015.20;937.90;;;17.20;99.90;;;;;;5013283;28;20541;-68
2023/08/09 07:00:24;;;;;;;1014.50;936.70;;;17.60;99.90;;;;;;4997836;28;20459;-69
2023/08/09 07:02:52;;;;;;;1014.07;936.60;;;17.70;99.90;;;;;;5003169;28;20454;-68
2023/08/09 07:05:20;;;;;;;994.47;917.43;;;17.70;99.90;;;;;;4994842;28;20451;-69
2023/08/09 07:07:52;;;;;;;1018.50;940.90;;;17.70;99.90;;;;;;5002644;28;20457;-68
2023/08/09 07:10:19;;;;;;;1006.23;929.93;;;17.80;99.90;;;;;;4995637;28;20953;-69
2023/08/09 07:12:46;;;;;;;1000.60;925.00;;;17.90;99.90;;;;;;5001099;28;20454;-69
2023/08/09 07:15:13;;;;;;;1005.83;931.93;;;18.20;99.90;;;;;;5012395;28;20483;-69
2023/08/09 07:17:40;;;;;;;995.63;923.33;;;18.30;99.90;;;;;;5000253;28;20467;-68
2023/08/09 07:20:11;;;;;;;987.00;916.80;;;18.60;99.90;;;;;;5008426;28;20457;-68
2023/08/09 07:22:38;;;;;;;997.70;928.63;;;18.30;99.90;;;;;;5006709;28;20454;-68
2023/08/09 07:25:09;;;;;;;997.67;930.17;;;18.00;99.90;;;;;;5000666;28;20451;-68
2023/08/09 07:27:39;;;;;;;995.97;929.57;;;17.90;99.90;;;;;;5000236;28;20463;-68
2023/08/09 07:30:08;;;;;;;1001.35;935.55;;;18.00;99.90;;;;;;5009708;28;20879;-69
2023/08/09 07:32:37;;;;;;;1000.37;936.00;;;17.80;99.90;;;;;;5015419;28;20600;-69
2023/08/09 07:35:04;;;;;;;989.17;927.17;;;17.70;99.90;;;;;;5014944;28;20516;-69
2023/08/09 07:37:31;;;;;;;968.57;910.63;;;17.60;99.90;;;;;;5014610;28;20457;-69
2023/08/09 07:39:58;;;;;;;963.40;906.30;;;17.50;99.90;;;;;;5012725;28;20465;-69
2023/08/09 07:42:27;;;;;;;962.10;905.70;;;17.40;99.90;;;;;;5013113;28;20450;-68
2023/08/09 07:44:53;;;;;;;950.90;895.70;;;17.40;99.90;;;;;;5013505;28;20979;-69
2023/08/09 07:47:20;;;;;;;925.10;872.60;;;17.60;99.90;;;;;;5013383;28;20882;-69
2023/08/09 07:49:47;;;;;;;898.57;848.57;;;17.40;99.90;;;;;;5013006;28;20453;-69
2023/08/09 07:52:14;;;;;;;924.63;872.33;;;17.30;99.90;;;;;;5013015;28;20549;-69
2023/08/09 07:54:41;;;;;;;897.77;847.90;;;17.50;99.90;;;;;;5012844;28;20448;-69
2023/08/09 07:57:09;;;;;;;881.60;833.67;;;17.60;99.90;;;;;;5012676;28;20485;-69
2023/08/09 07:59:37;;;;;;;866.27;818.40;;;17.60;99.90;;;;;;5013034;28;20461;-69
2023/08/09 08:02:04;;;;;;;883.77;835.07;;;17.80;99.90;;;;;;5013121;28;20545;-69
2023/08/09 08:04:31;;;;;;;870.10;822.50;;;17.80;99.90;;;;;;5013061;28;20540;-69
2023/08/09 08:06:58;;;;;;;859.23;812.63;;;17.90;99.90;;;;;;5013504;28;20445;-69
2023/08/09 08:09:25;;;;;;;866.60;818.43;;;18.10;99.90;;;;;;5012510;28;20453;-69
2023/08/09 08:11:51;;;;;;;841.50;793.20;;;18.50;99.90;;;;;;5012706;28;20536;-69
2023/08/09 08:14:19;;;;;;;832.77;785.17;;;19.00;99.90;;;;;;5013095;28;20459;-69
2023/08/09 08:16:48;;;;;;;850.57;801.47;;;19.20;99.90;;;;;;5012958;28;20474;-69
2023/08/09 08:19:15;;;;;;;829.00;780.00;;;19.60;99.90;;;;;;5012753;28;20469;-70
2023/08/09 08:21:42;;;;;;;842.77;793.20;;;20.20;98.80;;;;;;5012670;28;20456;-69
2023/08/09 08:24:09;;;;;;;824.37;774.47;;;20.80;97.50;;;;;;5012344;28;20819;-69
2023/08/09 08:26:36;;;;;;;817.83;768.93;;;21.30;88.80;;;;;;5012650;28;20851;-69
2023/08/09 08:29:03;;;;;;;831.10;781.47;;;21.90;71.80;;;;;;5012168;28;20450;-69
2023/08/09 08:31:30;;;;;;;828.37;779.37;;;21.90;66.60;;;;;;5012260;28;20464;-69
2023/08/09 08:33:58;;;;;;;819.73;773.63;;;22.50;64.20;;;;;;5012676;28;20452;-69
2023/08/09 08:36:25;;;;;;;784.50;743.90;;;22.80;55.80;;;;;;5012928;28;20572;-69
2023/08/09 08:38:52;;;;;;;685.20;651.70;;;22.60;55.70;;;;;;5012589;28;20461;-69
2023/08/09 08:41:20;;;;;;;727.93;693.30;;;23.20;56.20;;;;;;5011680;28;20449;-69
2023/08/09 08:43:47;;;;;;;656.13;627.93;;;23.80;46.80;;;;;;5012615;28;20479;-69
2023/08/09 08:46:16;;;;;;;568.23;544.47;;;23.90;38.90;;;;;;5012843;28;20445;-69
2023/08/09 08:48:47;;;;;;;485.37;466.07;;;23.70;42.50;;;;;;5012620;28;20449;-69
2023/08/09 08:51:15;;;;;;;428.93;413.57;;;23.50;38.60;;;;;;5012515;28;20454;-69
2023/08/09 08:53:42;;;;;;;382.70;370.17;;;23.80;38.80;;;;;;5012807;28;20481;-69
2023/08/09 08:56:10;;;;;;;325.27;315.17;;;23.50;38.60;;;;;;5012477;28;20509;-69
2023/08/09 08:58:37;;;;;;;285.17;276.67;;;23.70;33.60;;;;;;5012602;28;20457;-69
2023/08/09 09:01:04;;;;;;;232.30;225.40;;;23.80;30.40;;;;;;5012453;28;20816;-69
2023/08/09 09:03:31;;;;;;;160.13;155.00;;;23.40;29.40;;;;;;5011742;28;20930;-69
2023/08/09 09:05:57;;;;;;;108.27;104.67;;;23.50;34.60;;;;;;5012248;28;20532;-68
2023/08/09 09:08:27;;;;;;;60.10;57.90;;;23.70;29.70;;;;;;5007730;28;20464;-68
2023/08/09 09:10:54;;;;;;;41.13;39.53;;;23.50;29.50;;;;;;5013398;28;20453;-68
2023/08/09 09:13:26;;;;;;;30.17;28.97;;;23.80;29.70;;;;;;5013920;28;20507;-68
2023/08/09 09:15:54;;;;;;;25.07;23.80;;;23.60;29.60;;;;;;5013680;28;20481;-70
2023/08/09 09:18:22;;;;;;;20.03;19.13;;;23.60;30.30;;;;;;5012985;28;20464;-68
2023/08/09 09:20:51;;;;;;;18.60;17.73;;;23.40;27.30;;;;;;5013875;28;20453;-71
2023/08/09 09:23:31;;;;;;;18.10;17.30;;;23.50;29.50;;;;;;5013554;28;20454;-70
2023/08/09 09:26:03;;;;;;;14.73;14.03;;;23.90;29.80;;;;;;5013893;28;20434;-71
2023/08/09 09:28:30;;;;;;;18.57;17.67;;;24.50;28.10;;;;;;5007673;28;20477;-70
2023/08/09 09:31:00;;;;;;;16.97;16.17;;;25.40;23.50;;;;;;4993910;28;20454;-70
2023/08/09 09:33:33;;;;;;;12.43;11.73;;;26.00;21.70;;;;;;4994164;28;20814;-69
2023/08/09 09:36:00;;;;;;;8.77;8.17;;;26.10;20.20;;;;;;4994282;28;20817;-70
2023/08/09 09:38:29;;;;;;;6.40;5.90;;;26.90;16.90;;;;;;4994831;28;20459;-69
2023/08/09 09:40:57;;;;;;;3.90;3.10;;;26.60;16.70;;;;;;5013648;28;20482;-71
2023/08/09 09:43:24;;;;;;;3.93;2.40;;;26.70;14.10;;;;;;5013190;28;20465;-70
2023/08/09 09:45:54;;;;;;;3.60;1.70;;;27.00;16.90;;;;;;5013322;28;20510;-70
2023/08/09 09:48:21;;;;;;;3.50;1.30;;;27.20;9.30;;;;;;5012829;28;20956;-69
2023/08/09 09:50:48;;;;;;;3.43;1.20;;;27.90;9.70;;;;;;5013521;28;20469;-70
2023/08/09 09:53:16;;;;;;;4.13;1.53;;;28.10;1.90;;;;;;5015832;28;20514;-70
2023/08/09 09:55:44;;;;;;;3.33;0.80;;;28.10;2.00;;;;;;5016892;28;20933;-70
2023/08/09 09:58:13;;;;;;;3.40;0.80;;;28.10;2.70;;;;;;5016486;28;20793;-70
2023/08/09 10:00:44;;;;;;;3.40;0.80;;;28.60;1.00;;;;;;5017021;28;20449;-70
2023/08/09 10:03:13;;;;;;;3.30;0.60;;;28.50;1.00;;;;;;5017189;28;20812;-70
2023/08/09 10:05:41;;;;;;;4.23;1.17;;;28.80;2.30;;;;;;5016934;28;20495;-70
2023/08/09 10:08:10;;;;;;;3.40;0.60;;;29.40;1.00;;;;;;5016359;28;20457;-68
2023/08/09 10:10:39;;;;;;;4.10;1.23;;;29.40;1.00;;;;;;5016618;28;20544;-68
2023/08/09 10:13:09;;;;;;;3.50;0.90;;;28.50;1.00;;;;;;5016969;28;20874;-68
2023/08/09 10:15:41;;;;;;;10.80;0.90;;;28.00;1.00;;;;;;5016908;28;20449;-70
2023/08/09 10:18:12;;;;;;;3.93;1.03;;;27.00;1.00;;;;;;5013687;28;20462;-70
2023/08/09 10:20:44;;;;;;;3.50;0.70;;;26.40;1.00;;;;;;4997225;28;20957;-70
2023/08/09 10:23:21;;;;;;;4.00;0.80;;;26.50;1.00;;;;;;4996087;28;20868;-70
2023/08/09 10:25:49;;;;;;;4.00;0.90;;;27.10;1.00;;;;;;4996783;28;20190;-70
2023/08/09 10:28:18;;;;;;;3.60;0.70;;;27.50;1.00;;;;;;4997215;28;20455;-68
2023/08/09 10:30:47;;;;;;;3.50;0.70;;;27.70;1.00;;;;;;4994327;28;20461;-68
2023/08/09 10:33:18;;;;;;;3.50;0.60;;;28.50;1.00;;;;;;4995113;28;20590;-66
2023/08/09 10:35:47;;;;;;;3.50;0.60;;;29.00;1.00;;;;;;4995354;28;20540;-68
2023/08/09 10:38:15;;;;;;;3.60;0.70;;;29.80;1.00;;;;;;4995211;28;20455;-68
2023/08/09 10:40:43;;;;;;;3.50;0.57;;;28.60;1.00;;;;;;5013838;28;20536;-68
2023/08/09 10:43:17;;;;;;;3.90;1.20;;;27.90;1.00;;;;;;5014876;28;20489;-68
2023/08/09 10:45:45;;;;;;;5.23;1.07;;;27.10;1.00;;;;;;5013454;28;20459;-68
2023/08/09 10:48:23;;;;;;;3.60;0.50;;;27.70;1.00;;;;;;5011215;28;20515;-69
2023/08/09 10:51:02;;;;;;;3.60;0.50;;;27.90;1.00;;;;;;5013066;28;20460;-69
2023/08/09 10:53:28;;;;;;;3.60;0.60;;;28.30;1.00;;;;;;5008434;28;20867;-69
2023/08/09 10:55:58;;;;;;;3.60;0.50;;;28.60;1.00;;;;;;5014062;28;20446;-68
2023/08/09 10:58:28;;;;;;;3.57;0.50;;;28.10;1.00;;;;;;5014707;28;20465;-68
2023/08/09 11:00:56;;;;;;;3.70;0.80;;;27.60;1.00;;;;;;4999393;28;20455;-69
2023/08/09 11:03:23;;;;;;;3.63;0.50;;;27.00;1.00;;;;;;4993503;28;20454;-69
2023/08/09 11:05:52;;;;;;;3.60;0.50;;;26.60;1.00;;;;;;4995272;28;20484;-69
2023/08/09 11:08:19;;;;;;;3.70;0.60;;;27.00;1.00;;;;;;5002283;28;20456;-69
2023/08/09 11:10:48;;;;;;;3.90;0.70;;;26.90;1.00;;;;;;5012796;28;20545;-69
2023/08/09 11:13:16;;;;;;;3.70;0.60;;;27.00;1.00;;;;;;5015806;28;20684;-69
2023/08/09 11:15:45;;;;;;;4.40;1.33;;;27.00;1.00;;;;;;5015712;28;20455;-69
2023/08/09 11:18:15;;;;;;;3.70;0.60;;;26.60;1.00;;;;;;5014960;28;20468;-69
2023/08/09 11:20:42;;;;;;;3.73;0.70;;;26.50;1.00;;;;;;5015551;28;20442;-69
2023/08/09 11:23:09;;;;;;;3.60;0.60;;;26.40;1.00;;;;;;5015197;28;20464;-69
2023/08/09 11:25:36;;;;;;;3.70;0.60;;;26.60;1.00;;;;;;5015215;28;20455;-69
2023/08/09 11:28:05;;;;;;;3.70;0.70;;;27.20;1.00;;;;;;5014450;28;20839;-69
2023/08/09 11:30:33;;;;;;;3.70;0.50;;;27.70;1.00;;;;;;5015099;28;20456;-68
2023/08/09 11:33:02;;;;;;;3.67;0.50;;;28.80;1.00;;;;;;5015087;28;20553;-67
2023/08/09 11:35:39;;;;;;;3.70;0.60;;;29.10;1.00;;;;;;5015096;28;20953;-68
2023/08/09 11:38:09;;;;;;;3.70;0.50;;;28.60;1.00;;;;;;5014852;28;20437;-68
2023/08/09 11:40:42;;;;;;;3.67;0.60;;;27.80;1.00;;;;;;5014773;28;20459;-69
2023/08/09 11:43:12;;;;;;;3.67;0.50;;;27.90;1.00;;;;;;5015038;28;20444;-68
2023/08/09 11:45:50;;;;;;;3.70;0.77;;;27.70;1.00;;;;;;5014854;28;20434;-68
2023/08/09 11:48:28;;;;;;;3.67;0.50;;;27.00;1.00;;;;;;5012573;28;20469;-69
2023/08/09 11:51:07;;;;;;;3.63;0.50;;;27.40;1.00;;;;;;5001277;28;20456;-69
2023/08/09 11:53:35;;;;;;;3.87;0.73;;;27.10;1.00;;;;;;4995218;28;20438;-68
2023/08/09 11:56:04;;;;;;;3.70;0.50;;;26.90;1.00;;;;;;4995486;28;20464;-68
2023/08/09 11:58:33;;;;;;;3.70;0.50;;;26.60;1.00;;;;;;4994355;28;20886;-67
2023/08/09 12:01:00;;;;;;;4.37;0.90;;;25.80;1.00;;;;;;4993938;28;20465;-69
2023/08/09 12:03:27;;;;;;;3.70;0.60;;;25.70;1.00;;;;;;4993295;28;20543;-68
2023/08/09 12:05:54;;;;;;;6.47;3.00;;;25.80;1.00;;;;;;4993635;28;20454;-69
2023/08/09 12:08:34;;;;;;;3.70;0.50;;;26.00;1.00;;;;;;4993271;28;20489;-70
2023/08/09 12:11:01;;;;;;;3.73;0.60;;;27.10;1.00;;;;;;4993518;28;20552;-69
2023/08/09 12:13:28;;;;;;;3.70;0.50;;;27.60;1.00;;;;;;4993636;28;20540;-69
2023/08/09 12:15:56;;;;;;;3.70;0.50;;;28.30;1.00;;;;;;4993482;28;20453;-69
2023/08/09 12:18:23;;;;;;;4.00;1.10;;;28.10;1.00;;;;;;4993163;28;20462;-69
2023/08/09 12:20:50;;;;;;;3.70;0.50;;;28.50;1.00;;;;;;4993640;28;20460;-68
2023/08/09 12:23:16;;;;;;;3.70;0.50;;;29.00;1.00;;;;;;4993303;28;20451;-69